Ames, South Dakota
Current Conditions -  °F | °C
As of 7:53 AM on Wednesday 22 Oct 2014 (Local Time) from KPIR Reporting Station
Scattered Clouds Scattered Clouds  
Wind Chill: 61°   Ceiling: Unl
Heat Index: 61°   Visibility: 10mi
Dew Point: 46°   Wind: 23mph
Humidity: 58%   Direction: 310°NW
Pressure: 29.82"   Gusts: 31mph
Location:  44.3693°N, 100.04°W
Report Text: KPIR 221253Z AUTO 31020G27KT 10SM SCT110 16/08 A2982 RMK AO2 PK WND 31027/1248 SLP088 T01610078
Loading
Personal Weather Stations






























Interactive Weather Map
Tropical Storm Tracking
New forecast layout! Learn more

10-Day Weather Forecast

Advertisements
Track Severe Weather on mobile